createdAt,value
2022-08-16T00:01:18.393Z,97128.94
2022-08-16T00:03:46.647Z,97122.97
2022-08-16T00:06:15.408Z,97115.84
2022-08-16T00:08:45.924Z,97122.69
2022-08-16T00:11:15.228Z,97117.38
2022-08-16T00:13:43.933Z,97120.78
2022-08-16T00:17:05.839Z,97125.75
2022-08-16T00:19:13.619Z,97126.84
2022-08-16T00:21:42.264Z,97124.47
2022-08-16T00:24:12.133Z,97128.59
2022-08-16T00:26:43.921Z,97122.91
2022-08-16T00:29:15.687Z,97124.81
2022-08-16T00:31:58.808Z,97127.69
2022-08-16T00:34:41.379Z,97136.72
2022-08-16T00:37:12.601Z,97136.25
2022-08-16T00:39:45.385Z,97139.78
2022-08-16T00:42:30.296Z,97139.78
2022-08-16T00:45:06.527Z,97136.00
2022-08-16T00:47:42.500Z,97129.47
2022-08-16T00:50:16.657Z,97131.75
2022-08-16T00:52:50.216Z,97132.06
2022-08-16T00:55:20.579Z,97138.09
2022-08-16T00:57:58.613Z,97135.91
2022-08-16T01:00:30.194Z,97126.34
2022-08-16T01:03:03.967Z,97136.75
2022-08-16T01:05:33.096Z,97137.13
2022-08-16T01:08:01.298Z,97146.66
2022-08-16T01:10:33.538Z,97140.69
2022-08-16T01:13:05.645Z,97148.34
2022-08-16T01:15:35.390Z,97149.19
2022-08-16T01:18:06.868Z,97150.84
2022-08-16T01:20:39.005Z,97142.75
2022-08-16T01:23:17.049Z,97149.81
2022-08-16T01:26:00.050Z,97143.00
2022-08-16T01:28:45.345Z,97141.69
2022-08-16T01:31:15.787Z,97146.16
2022-08-16T01:33:44.683Z,97143.06
2022-08-16T01:36:13.102Z,97152.09
2022-08-16T01:38:47.061Z,97151.09
2022-08-16T01:41:21.247Z,97150.56
2022-08-16T01:43:53.886Z,97141.56
2022-08-16T01:46:37.210Z,97145.38
2022-08-16T01:49:09.970Z,97144.91
2022-08-16T01:51:39.195Z,97147.97
2022-08-16T01:54:15.360Z,97136.78
2022-08-16T01:56:52.643Z,97136.94
2022-08-16T01:59:23.362Z,97136.56
2022-08-16T02:02:02.661Z,97137.63
2022-08-16T02:04:54.607Z,97145.59
2022-08-16T02:07:28.690Z,97153.81
2022-08-16T02:10:04.778Z,97159.84
2022-08-16T02:12:49.482Z,97154.91
2022-08-16T02:15:40.398Z,97138.84
2022-08-16T02:18:18.545Z,97145.72
2022-08-16T02:20:57.853Z,97147.56
2022-08-16T02:23:30.028Z,97141.88
2022-08-16T02:26:02.419Z,97145.97
2022-08-16T02:28:34.971Z,97143.00
2022-08-16T02:31:10.215Z,97144.78
2022-08-16T02:33:50.620Z,97160.31
2022-08-16T02:36:47.736Z,97150.44
2022-08-16T02:39:23.121Z,97159.97
2022-08-16T02:41:53.790Z,97145.47
2022-08-16T02:44:29.315Z,97145.69
2022-08-16T02:47:05.984Z,97144.50
2022-08-16T02:49:59.133Z,97152.94
2022-08-16T02:55:40.876Z,97142.63
2022-08-16T02:58:14.817Z,97136.91
2022-08-16T03:00:55.988Z,97139.41
2022-08-16T03:04:41.197Z,97141.31
2022-08-16T03:06:56.731Z,97141.88
2022-08-16T03:09:32.519Z,97137.25
2022-08-16T03:12:04.136Z,97145.16
2022-08-16T03:14:32.476Z,97146.78
2022-08-16T03:17:12.740Z,97144.88
2022-08-16T03:19:48.477Z,97146.53
2022-08-16T03:22:36.880Z,97146.28
2022-08-16T03:25:25.083Z,97138.09
2022-08-16T03:28:18.912Z,97136.22
2022-08-16T03:30:56.674Z,97130.25
2022-08-16T03:33:40.470Z,97131.31
2022-08-16T03:36:30.164Z,97134.63
2022-08-16T03:39:06.139Z,97136.78
2022-08-16T03:41:50.091Z,97148.78
2022-08-16T03:44:40.743Z,97147.19
2022-08-16T03:49:54.952Z,97149.63
2022-08-16T03:52:43.710Z,97157.59
2022-08-16T03:55:17.498Z,97158.94
2022-08-16T03:57:53.911Z,97159.19
2022-08-16T04:00:35.848Z,97153.50
2022-08-16T04:03:11.472Z,97157.34
2022-08-16T04:05:46.650Z,97155.66
2022-08-16T04:08:23.184Z,97160.34
2022-08-16T04:11:02.305Z,97154.59
2022-08-16T04:14:01.187Z,97152.44
2022-08-16T04:16:29.783Z,97153.25
2022-08-16T04:19:06.485Z,97166.06
2022-08-16T04:21:47.168Z,97161.47
2022-08-16T04:24:17.093Z,97164.72
2022-08-16T04:26:52.174Z,97166.63
2022-08-16T04:29:27.238Z,97164.72
2022-08-16T04:32:21.482Z,97167.19
2022-08-16T04:34:58.523Z,97166.34
2022-08-16T04:37:45.555Z,97177.00
2022-08-16T04:40:21.464Z,97173.16
2022-08-16T04:42:54.909Z,97174.53
2022-08-16T04:45:35.966Z,97183.28
2022-08-16T04:48:22.153Z,97172.63
2022-08-16T04:51:07.889Z,97177.25
2022-08-16T04:53:50.627Z,97172.94
2022-08-16T04:56:30.604Z,97186.00
2022-08-16T04:59:00.091Z,97188.97
2022-08-16T05:01:58.248Z,97182.44
2022-08-16T05:04:19.862Z,97188.97
2022-08-16T05:06:48.041Z,97180.78
2022-08-16T05:09:36.572Z,97181.06
2022-08-16T05:12:06.440Z,97176.41
2022-08-16T05:14:46.476Z,97175.00
2022-08-16T05:17:26.433Z,97178.00
2022-08-16T05:19:57.253Z,97178.78
2022-08-16T05:22:30.086Z,97182.50
2022-08-16T05:24:59.269Z,97187.84
2022-08-16T05:27:26.935Z,97188.00
2022-08-16T05:30:00.808Z,97193.72
2022-08-16T05:32:32.616Z,97192.75
2022-08-16T05:35:02.203Z,97192.13
2022-08-16T05:37:39.995Z,97197.28
2022-08-16T05:40:13.050Z,97191.31
2022-08-16T05:42:46.021Z,97188.09
2022-08-16T05:45:14.134Z,97193.16
2022-08-16T05:47:49.454Z,97197.94
2022-08-16T05:50:34.457Z,97201.41
2022-08-16T05:53:04.248Z,97195.59
2022-08-16T05:55:40.822Z,97195.13
2022-08-16T05:58:08.629Z,97206.16
2022-08-16T06:03:18.717Z,97208.72
2022-08-16T06:05:46.456Z,97213.41
2022-08-16T06:08:32.343Z,97214.94
2022-08-16T06:11:11.115Z,97212.31
2022-08-16T06:13:50.477Z,97204.47
2022-08-16T06:16:18.811Z,97207.91
2022-08-16T06:19:00.286Z,97201.69
2022-08-16T06:21:40.491Z,97202.19
2022-08-16T06:24:53.979Z,97203.38
2022-08-16T06:27:11.906Z,97216.97
2022-08-16T06:30:11.316Z,97214.25
2022-08-16T06:32:48.418Z,97212.59
2022-08-16T06:35:17.485Z,97215.00
2022-08-16T06:37:51.184Z,97208.97
2022-08-16T06:40:19.527Z,97217.72
2022-08-16T06:42:48.517Z,97222.94
2022-08-16T06:45:16.714Z,97216.38
2022-08-16T06:47:56.110Z,97220.72
2022-08-16T06:50:30.002Z,97217.22
2022-08-16T06:53:00.506Z,97222.16
2022-08-16T06:55:34.108Z,97217.13
2022-08-16T06:58:08.193Z,97216.84
2022-08-16T07:00:39.344Z,97224.19
2022-08-16T07:03:27.183Z,97223.31
2022-08-16T07:05:56.892Z,97225.25
2022-08-16T07:08:24.874Z,97226.81
2022-08-16T07:10:55.458Z,97229.81
2022-08-16T07:14:00.574Z,97231.09
2022-08-16T07:16:20.810Z,97227.56
2022-08-16T07:18:59.133Z,97236.56
2022-08-16T07:21:46.573Z,97228.44
2022-08-16T07:24:30.468Z,97226.97
2022-08-16T07:26:59.001Z,97227.59
2022-08-16T07:29:31.658Z,97220.56
2022-08-16T07:32:00.826Z,97221.22
2022-08-16T07:34:35.261Z,97232.91
2022-08-16T07:37:11.454Z,97228.00
2022-08-16T07:39:42.914Z,97227.06
2022-08-16T07:42:10.626Z,97224.66
2022-08-16T07:44:50.691Z,97224.78
2022-08-16T07:47:18.608Z,97226.78
2022-08-16T07:49:53.192Z,97233.72
2022-08-16T07:52:29.690Z,97231.06
2022-08-16T07:54:57.835Z,97223.28
2022-08-16T07:57:26.440Z,97228.09
2022-08-16T07:59:57.395Z,97221.72
2022-08-16T08:02:27.177Z,97222.94
2022-08-16T08:04:55.975Z,97231.91
2022-08-16T08:07:27.470Z,97224.31
2022-08-16T08:09:56.566Z,97223.28
2022-08-16T08:12:32.054Z,97232.38
2022-08-16T08:15:09.581Z,97234.50
2022-08-16T08:17:43.009Z,97219.63
2022-08-16T08:20:20.780Z,97216.25
2022-08-16T08:23:03.388Z,97219.81
2022-08-16T08:25:52.089Z,97219.56
2022-08-16T08:28:19.891Z,97219.31
2022-08-16T08:31:00.847Z,97239.19
2022-08-16T08:33:31.349Z,97231.63
2022-08-16T08:36:12.373Z,97226.03
2022-08-16T08:38:51.174Z,97242.00
2022-08-16T08:41:23.600Z,97241.16
2022-08-16T08:43:57.146Z,97239.66
2022-08-16T08:46:29.010Z,97245.31
2022-08-16T08:49:10.976Z,97236.00
2022-08-16T08:51:39.161Z,97243.97
2022-08-16T08:54:10.173Z,97242.69
2022-08-16T08:56:45.995Z,97246.94
2022-08-16T08:59:20.111Z,97248.06
2022-08-16T09:01:57.773Z,97242.88
2022-08-16T09:04:26.942Z,97246.03
2022-08-16T09:06:55.037Z,97244.03
2022-08-16T09:09:23.067Z,97246.81
2022-08-16T09:12:04.253Z,97254.34
2022-08-16T09:14:49.490Z,97246.31
2022-08-16T09:20:13.536Z,97238.97
2022-08-16T09:22:42.880Z,97238.78
2022-08-16T09:25:35.374Z,97236.81
2022-08-16T09:28:09.505Z,97236.03
2022-08-16T09:30:45.865Z,97242.16
2022-08-16T09:36:45.070Z,97239.59
2022-08-16T09:39:15.797Z,97243.34
2022-08-16T09:41:54.438Z,97239.13
2022-08-16T09:45:12.368Z,97238.84
2022-08-16T09:47:12.262Z,97244.03
2022-08-16T09:49:42.563Z,97245.34
2022-08-16T09:52:11.545Z,97251.22
2022-08-16T09:54:44.349Z,97244.72
2022-08-16T09:57:12.489Z,97243.03
2022-08-16T09:59:41.997Z,97242.78
2022-08-16T10:02:26.412Z,97245.16
2022-08-16T10:04:57.902Z,97241.97
2022-08-16T10:07:26.325Z,97239.97
2022-08-16T10:10:12.572Z,97240.44
2022-08-16T10:13:07.370Z,97240.81
2022-08-16T10:15:36.148Z,97244.38
2022-08-16T10:18:56.124Z,97246.22
2022-08-16T10:21:06.685Z,97244.00
2022-08-16T10:23:54.449Z,97245.81
2022-08-16T10:27:20.022Z,97233.66
2022-08-16T10:30:01.033Z,97237.06
2022-08-16T10:39:17.709Z,97222.78
2022-08-16T10:45:13.811Z,97223.66
2022-08-16T10:48:27.748Z,97227.16
2022-08-16T10:52:01.735Z,97226.88
2022-08-16T10:57:57.076Z,97232.59
2022-08-16T11:00:24.846Z,97229.84
2022-08-16T11:02:59.421Z,97229.38
2022-08-16T11:05:59.076Z,97231.50
2022-08-16T11:08:23.588Z,97230.16
2022-08-16T11:11:12.700Z,97231.06
2022-08-16T11:19:17.552Z,97218.44
2022-08-16T11:24:42.627Z,97206.28
2022-08-16T11:27:19.658Z,97210.50
2022-08-16T11:29:49.766Z,97215.56
2022-08-16T11:32:22.668Z,97212.00
2022-08-16T11:35:10.743Z,97212.00
2022-08-16T11:40:32.360Z,97218.28
2022-08-16T11:43:04.594Z,97213.06
2022-08-16T11:45:33.890Z,97211.19
2022-08-16T11:48:02.813Z,97207.00
2022-08-16T11:50:33.466Z,97203.91
2022-08-16T11:53:02.430Z,97212.59
2022-08-16T11:55:32.271Z,97207.25
2022-08-16T11:58:00.149Z,97210.88
2022-08-16T12:00:35.224Z,97221.25
2022-08-16T12:03:19.142Z,97219.63
2022-08-16T12:05:51.960Z,97210.78
2022-08-16T12:08:26.019Z,97213.75
2022-08-16T12:10:59.419Z,97199.75
2022-08-16T12:13:31.213Z,97207.75
2022-08-16T12:16:03.235Z,97204.00
2022-08-16T12:18:40.613Z,97209.75
2022-08-16T12:21:09.836Z,97215.38
2022-08-16T12:23:38.048Z,97218.44
2022-08-16T12:26:10.238Z,97210.06
2022-08-16T12:28:55.161Z,97214.59
2022-08-16T12:31:26.204Z,97213.91
2022-08-16T12:33:55.988Z,97219.31
2022-08-16T12:36:30.095Z,97217.69
2022-08-16T12:39:00.697Z,97219.03
2022-08-16T12:41:29.087Z,97205.16
2022-08-16T12:44:06.284Z,97208.59
2022-08-16T12:46:36.135Z,97207.38
2022-08-16T12:49:05.782Z,97199.13
2022-08-16T12:51:59.046Z,97205.06
2022-08-16T12:54:25.094Z,97199.00
2022-08-16T12:56:53.118Z,97205.06
2022-08-16T12:59:23.793Z,97194.09
2022-08-16T13:01:55.425Z,97202.50
2022-08-16T13:04:27.996Z,97197.44
2022-08-16T13:09:42.091Z,97195.94
2022-08-16T13:12:20.020Z,97186.31
2022-08-16T13:14:50.289Z,97201.69
2022-08-16T13:17:23.276Z,97197.38
2022-08-16T13:20:11.124Z,97196.66
2022-08-16T13:22:41.338Z,97196.38
2022-08-16T13:25:14.082Z,97199.88
2022-08-16T13:28:03.338Z,97196.50
2022-08-16T13:30:36.345Z,97190.75
2022-08-16T13:33:12.512Z,97191.50
2022-08-16T13:35:44.236Z,97188.25
2022-08-16T13:38:24.647Z,97192.69
2022-08-16T13:40:55.970Z,97194.13
2022-08-16T13:43:25.043Z,97189.28
2022-08-16T13:45:55.403Z,97183.13
2022-08-16T13:48:26.180Z,97188.13
2022-08-16T13:50:56.315Z,97188.47
2022-08-16T13:53:24.975Z,97183.78
2022-08-16T13:55:57.913Z,97184.44
2022-08-16T13:58:36.516Z,97180.13
2022-08-16T14:01:17.123Z,97178.25
2022-08-16T14:03:46.977Z,97184.06
2022-08-16T14:06:15.532Z,97181.66
2022-08-16T14:08:59.046Z,97181.88
2022-08-16T14:11:34.847Z,97176.16
2022-08-16T14:14:05.624Z,97181.31
2022-08-16T14:16:34.733Z,97181.13
2022-08-16T14:19:06.920Z,97176.72
2022-08-16T14:21:35.842Z,97180.47
2022-08-16T14:24:16.647Z,97177.91
2022-08-16T14:26:50.316Z,97173.31
2022-08-16T14:31:53.918Z,97174.31
2022-08-16T14:34:25.657Z,97165.13
2022-08-16T14:36:57.463Z,97159.91
2022-08-16T14:39:27.264Z,97155.03
2022-08-16T14:41:55.777Z,97157.78
2022-08-16T14:44:26.124Z,97165.00
2022-08-16T14:46:54.772Z,97162.88
2022-08-16T14:49:24.870Z,97157.16
2022-08-16T14:51:52.702Z,97154.75
2022-08-16T14:54:21.710Z,97158.16
2022-08-16T14:56:55.260Z,97163.34
2022-08-16T14:59:23.415Z,97163.63
2022-08-16T15:01:59.004Z,97150.59
2022-08-16T15:04:32.528Z,97155.69
2022-08-16T15:07:10.135Z,97154.41
2022-08-16T15:09:44.127Z,97149.19
2022-08-16T15:12:32.850Z,97149.44
2022-08-16T15:15:12.236Z,97153.06
2022-08-16T15:17:54.251Z,97143.25
2022-08-16T15:20:29.175Z,97152.81
2022-08-16T15:22:59.260Z,97148.84
2022-08-16T15:25:30.165Z,97146.06
2022-08-16T15:27:58.603Z,97141.78
2022-08-16T15:30:57.291Z,97145.97
2022-08-16T15:33:18.213Z,97147.16
2022-08-16T15:35:53.006Z,97147.25
2022-08-16T15:38:56.943Z,97144.63
2022-08-16T15:41:54.140Z,97149.09
2022-08-16T15:44:24.812Z,97154.22
2022-08-16T15:46:56.454Z,97148.19
2022-08-16T15:49:37.296Z,97143.72
2022-08-16T15:52:11.487Z,97149.34
2022-08-16T15:54:51.404Z,97148.81
2022-08-16T15:57:22.650Z,97143.66
2022-08-16T15:59:52.679Z,97147.31
2022-08-16T16:02:29.556Z,97151.84
2022-08-16T16:05:01.783Z,97142.09
2022-08-16T16:07:33.170Z,97154.44
2022-08-16T16:10:02.018Z,97156.56
2022-08-16T16:12:51.368Z,97150.22
2022-08-16T16:15:22.881Z,97147.63
2022-08-16T16:17:52.549Z,97147.81
2022-08-16T16:20:22.207Z,97148.38
2022-08-16T16:22:53.992Z,97152.94
2022-08-16T16:25:21.637Z,97153.72
2022-08-16T16:27:55.308Z,97153.72
2022-08-16T16:30:34.493Z,97151.06
2022-08-16T16:33:15.834Z,97154.50
2022-08-16T16:35:55.539Z,97145.25
2022-08-16T16:38:28.819Z,97144.97
2022-08-16T16:40:57.652Z,97141.97
2022-08-16T16:43:31.322Z,97146.63
2022-08-16T16:45:59.876Z,97142.25
2022-08-16T16:48:34.612Z,97135.63
2022-08-16T16:51:09.169Z,97138.88
2022-08-16T16:53:42.269Z,97139.84
2022-08-16T16:56:20.418Z,97142.09
2022-08-16T17:02:38.146Z,97138.56
2022-08-16T17:04:47.244Z,97138.06
2022-08-16T17:07:15.401Z,97132.53
2022-08-16T17:09:45.793Z,97135.63
2022-08-16T17:12:24.998Z,97147.66
2022-08-16T17:15:02.952Z,97146.56
2022-08-16T17:17:59.274Z,97146.56
2022-08-16T17:20:20.805Z,97148.56
2022-08-16T17:22:55.075Z,97146.63
2022-08-16T17:25:25.380Z,97152.94
2022-08-16T17:27:53.078Z,97150.91
2022-08-16T17:30:29.592Z,97145.22
2022-08-16T17:33:13.249Z,97142.09
2022-08-16T17:35:45.817Z,97150.34
2022-08-16T17:38:39.298Z,97147.53
2022-08-16T17:41:15.539Z,97154.84
2022-08-16T17:43:45.032Z,97162.56
2022-08-16T17:46:41.475Z,97161.97
2022-08-16T17:49:01.900Z,97160.28
2022-08-16T17:51:29.510Z,97167.81
2022-08-16T17:53:57.619Z,97159.69
2022-08-16T17:56:26.638Z,97176.63
2022-08-16T17:58:54.505Z,97167.47
2022-08-16T18:01:26.313Z,97170.66
2022-08-16T18:04:07.180Z,97167.81
2022-08-16T18:06:37.610Z,97170.28
2022-08-16T18:09:05.633Z,97179.75
2022-08-16T18:11:41.058Z,97175.16
2022-08-16T18:14:13.222Z,97170.69
2022-08-16T18:16:41.283Z,97176.59
2022-08-16T18:19:09.163Z,97175.88
2022-08-16T18:21:54.841Z,97174.16
2022-08-16T18:24:22.944Z,97179.56
2022-08-16T18:26:52.333Z,97177.22
2022-08-16T18:29:21.321Z,97170.19
2022-08-16T18:31:50.920Z,97178.81
2022-08-16T18:34:20.750Z,97174.56
2022-08-16T18:36:48.415Z,97174.16
2022-08-16T18:39:16.375Z,97180.00
2022-08-16T18:41:47.014Z,97176.63
2022-08-16T18:44:25.652Z,97171.53
2022-08-16T18:46:55.507Z,97180.97
2022-08-16T18:49:23.304Z,97182.69
2022-08-16T18:51:51.035Z,97183.97
2022-08-16T18:54:19.536Z,97197.25
2022-08-16T18:56:54.233Z,97192.47
2022-08-16T18:59:28.089Z,97188.97
2022-08-16T19:02:00.400Z,97191.78
2022-08-16T19:04:48.984Z,97197.38
2022-08-16T19:07:22.244Z,97194.94
2022-08-16T19:09:50.010Z,97199.78
2022-08-16T19:12:17.647Z,97196.53
2022-08-16T19:15:11.983Z,97203.72
2022-08-16T19:17:41.283Z,97203.78
2022-08-16T19:20:11.016Z,97208.00
2022-08-16T19:25:47.514Z,97213.00
2022-08-16T19:28:48.837Z,97215.75
2022-08-16T19:31:10.723Z,97220.72
2022-08-16T19:33:38.801Z,97222.41
2022-08-16T19:36:06.928Z,97209.09
2022-08-16T19:38:39.370Z,97222.56
2022-08-16T19:41:07.409Z,97214.91
2022-08-16T19:43:35.627Z,97216.69
2022-08-16T19:46:04.170Z,97223.06
2022-08-16T19:48:33.245Z,97223.94
2022-08-16T19:51:01.405Z,97222.06
2022-08-16T19:53:29.503Z,97218.81
2022-08-16T19:55:58.249Z,97220.78
2022-08-16T19:58:27.623Z,97230.69
2022-08-16T20:00:56.454Z,97226.88
2022-08-16T20:03:24.964Z,97235.13
2022-08-16T20:05:54.027Z,97230.25
2022-08-16T20:08:22.206Z,97240.38
2022-08-16T20:10:50.728Z,97239.69
2022-08-16T20:13:21.220Z,97238.63
2022-08-16T20:15:50.404Z,97250.72
2022-08-16T20:18:24.382Z,97246.03
2022-08-16T20:20:55.345Z,97251.81
2022-08-16T20:23:25.319Z,97249.94
2022-08-16T20:25:55.441Z,97253.84
2022-08-16T20:28:51.012Z,97256.63
2022-08-16T20:31:11.814Z,97254.97
2022-08-16T20:33:39.608Z,97250.91
2022-08-16T20:36:09.326Z,97265.44
2022-08-16T20:38:46.789Z,97263.53
2022-08-16T20:41:14.785Z,97268.66
2022-08-16T20:43:42.726Z,97272.91
2022-08-16T20:46:11.186Z,97272.06
2022-08-16T20:48:38.834Z,97272.34
2022-08-16T20:51:10.552Z,97265.25
2022-08-16T20:53:38.672Z,97261.16
2022-08-16T20:56:07.675Z,97271.03
2022-08-16T20:58:35.303Z,97267.78
2022-08-16T21:01:03.464Z,97271.38
2022-08-16T21:03:31.326Z,97276.00
2022-08-16T21:05:59.485Z,97271.63
2022-08-16T21:08:53.619Z,97273.28
2022-08-16T21:11:16.900Z,97276.59
2022-08-16T21:13:44.482Z,97281.00
2022-08-16T21:16:12.095Z,97280.78
2022-08-16T21:18:39.699Z,97275.56
2022-08-16T21:21:07.281Z,97282.72
2022-08-16T21:23:36.244Z,97281.38
2022-08-16T21:26:05.760Z,97286.31
2022-08-16T21:28:43.333Z,97290.16
2022-08-16T21:31:11.692Z,97287.16
2022-08-16T21:33:40.751Z,97280.34
2022-08-16T21:36:09.069Z,97288.00
2022-08-16T21:38:38.429Z,97286.38
2022-08-16T21:41:07.972Z,97284.22
2022-08-16T21:43:35.838Z,97282.06
2022-08-16T21:46:05.266Z,97284.22
2022-08-16T21:48:35.787Z,97285.63
2022-08-16T21:51:05.158Z,97279.91
2022-08-16T21:53:34.099Z,97282.41
2022-08-16T21:56:03.184Z,97285.41
2022-08-16T21:58:31.957Z,97284.06
2022-08-16T22:01:00.735Z,97287.34
2022-08-16T22:03:29.984Z,97285.16
2022-08-16T22:06:11.037Z,97288.47
2022-08-16T22:08:49.323Z,97284.41
2022-08-16T22:11:20.142Z,97278.66
2022-08-16T22:13:58.357Z,97276.50
2022-08-16T22:16:28.767Z,97278.69
2022-08-16T22:18:56.548Z,97273.50
2022-08-16T22:21:24.633Z,97277.59
2022-08-16T22:23:57.168Z,97280.06
2022-08-16T22:26:30.486Z,97284.16
2022-08-16T22:29:00.128Z,97280.66
2022-08-16T22:31:27.740Z,97282.56
2022-08-16T22:33:56.505Z,97277.66
2022-08-16T22:36:24.259Z,97281.50
2022-08-16T22:38:58.058Z,97288.31
2022-08-16T22:41:29.073Z,97282.31
2022-08-16T22:43:57.523Z,97282.88
2022-08-16T22:46:25.314Z,97285.06
2022-08-16T22:48:53.115Z,97290.81
2022-08-16T22:51:23.033Z,97284.28
2022-08-16T22:53:50.964Z,97279.91
2022-08-16T22:56:18.827Z,97280.72
2022-08-16T22:58:49.061Z,97272.56
2022-08-16T23:01:18.484Z,97271.22
2022-08-16T23:03:46.219Z,97276.94
2022-08-16T23:06:14.748Z,97278.31
2022-08-16T23:08:43.472Z,97276.94
2022-08-16T23:11:14.421Z,97274.50
2022-08-16T23:13:49.969Z,97290.63
2022-08-16T23:16:33.502Z,97284.59
2022-08-16T23:19:02.664Z,97283.25
2022-08-16T23:21:30.450Z,97283.78
2022-08-16T23:23:58.247Z,97275.34
2022-08-16T23:26:46.735Z,97278.06
2022-08-16T23:29:22.143Z,97270.44
2022-08-16T23:31:56.137Z,97279.19
2022-08-16T23:34:24.198Z,97273.47
2022-08-16T23:36:51.820Z,97278.38
2022-08-16T23:39:19.534Z,97274.81
2022-08-16T23:41:47.131Z,97276.47
2022-08-16T23:44:56.700Z,97273.22
2022-08-16T23:47:05.228Z,97271.84
2022-08-16T23:49:57.983Z,97276.47
2022-08-16T23:52:53.370Z,97265.56
2022-08-16T23:55:09.086Z,97263.38
2022-08-16T23:57:37.453Z,97272.91
